Latest Weather Observations for Mount Boyce

IDN60901

Issued at 8:02 am EDT Saturday 16 October 2021 (issued every 10 minutes, with the page automatically refreshed every 10 minutes)

About weather observations | Map of Sydney area stations | Latest observations for Sydney area | Other Formats
Station Details ID: 063292 Name: MOUNT BOYCE AWS Lat: -33.62 Lon: 150.27 Height: 1080.0 m
Data from the previous 72 hours. | See also: Recent months at Mount Boyce
Date/Time
EDT
Temp
°C
App
Temp
°C
Dew
Point
°C
Rel
Hum
%
Delta-T
°C
Wind Press
QNH
hPa
Press
MSL
hPa
Rain since
9am
mm
Dir  Spd
km/h
Gust
km/h
Spd
kts
Gust
kts
16/08:00am 5.3 -2.3 3.0 85 1.0 WSW 32 48 17 26 - - 1.8
16/07:30am 5.5 -3.1 2.5 81 1.3 WSW 37 61 20 33 - - 1.8
16/07:02am 5.4 -1.8 2.9 84 1.1 WSW 30 48 16 26 - - 1.8
16/07:00am 5.4 -2.2 2.9 84 1.1 WSW 32 48 17 26 - - 1.8
16/06:30am 5.4 -3.1 3.3 86 0.9 WSW 37 67 20 36 - - 1.8
16/06:00am 5.2 -3.5 4.0 92 0.5 WSW 39 59 21 32 - - 1.8
16/05:30am 5.3 -4.8 4.0 91 0.6 W 46 72 25 39 - - 1.8
16/05:00am 5.3 -4.2 4.0 91 0.6 W 43 70 23 38 - - 1.8
16/04:30am 5.3 -4.2 3.8 90 0.7 WSW 43 70 23 38 - - 1.8
16/04:00am 5.2 -4.9 3.9 91 0.6 W 46 72 25 39 - - 1.8
16/03:30am 5.0 -4.1 4.0 93 0.5 W 41 72 22 39 - - 1.8
16/03:00am 5.3 -3.9 3.5 88 0.8 W 41 63 22 34 - - 1.8
16/02:41am 5.2 -2.9 3.2 87 0.9 WSW 35 61 19 33 - - 1.6
16/02:35am 5.1 -3.4 3.1 87 0.9 W 37 63 20 34 - - 1.6
16/02:30am 5.1 -3.8 3.0 86 0.9 W 39 63 21 34 - - 1.6
16/02:00am 5.1 -4.2 3.1 87 0.9 WSW 41 63 22 34 - - 1.6
16/01:30am 5.3 -3.2 3.2 86 0.9 WSW 37 61 20 33 - - 1.6
16/01:00am 5.3 -3.6 3.3 87 0.9 W 39 65 21 35 - - 1.6
16/12:30am 5.4 -2.3 3.4 87 0.9 W 33 61 18 33 - - 1.6
16/12:00am 5.5 -2.6 3.2 85 1.0 W 35 54 19 29 - - 1.6
 
Date/Time
EDT
Temp
°C
App
Temp
°C
Dew
Point
°C
Rel
Hum
%
Delta-T
°C
Wind Press
QNH
hPa
Press
MSL
hPa
Rain since
9am
mm
Dir  Spd
km/h
Gust
km/h
Spd
kts
Gust
kts
15/11:34pm 5.3 -1.8 3.8 90 0.7 WSW 30 48 16 26 - - 1.6
15/11:30pm 5.2 -1.8 4.0 92 0.5 WSW 30 44 16 24 - - 1.6
15/11:00pm 5.1 -1.1 4.4 95 0.3 WSW 26 41 14 22 - - 1.6
15/10:30pm 5.2 -1.8 4.2 93 0.5 WSW 30 48 16 26 - - 1.6
15/10:00pm 5.1 -1.6 3.8 91 0.6 WSW 28 46 15 25 - - 1.6
15/09:30pm 5.3 -2.1 3.8 90 0.7 WSW 32 50 17 27 - - 1.6
15/09:00pm 5.3 -1.3 4.1 92 0.5 WSW 28 50 15 27 - - 1.6
15/08:51pm 5.3 -1.3 4.3 93 0.5 W 28 50 15 27 - - 1.6
15/08:30pm 5.0 -1.1 4.6 97 0.2 WSW 26 39 14 21 - - 1.6
15/08:00pm 5.0 -0.9 4.1 94 0.4 W 24 41 13 22 - - 1.6
15/07:45pm 4.9 -1.8 3.9 93 0.4 WSW 28 46 15 25 - - 1.6
15/07:30pm 4.9 -1.8 3.9 93 0.4 W 28 43 15 23 - - 1.6
15/07:00pm 5.1 -1.6 3.8 91 0.6 W 28 48 15 26 - - 1.6
15/06:57pm 5.2 -1.5 3.9 91 0.6 W 28 48 15 26 - - 1.6
15/06:30pm 5.3 -1.3 4.4 94 0.4 W 28 41 15 22 - - 1.6
15/06:07pm 6.0 -2.3 4.3 89 0.8 W 37 69 20 37 - - 1.6
15/06:00pm 6.5 -0.3 5.1 91 0.7 W 30 48 16 26 - - 1.6
15/05:51pm 6.7 -0.1 4.9 88 0.8 WSW 30 48 16 26 - - 1.4
15/05:30pm 8.4 2.3 5.0 79 1.6 W 26 41 14 22 - - 1.4
15/05:14pm 8.7 2.3 5.4 80 1.6 W 28 48 15 26 - - 1.4
15/05:04pm 8.0 1.4 6.1 88 0.9 W 30 44 16 24 - - 1.4
15/05:00pm 7.0 0.5 4.7 85 1.1 W 28 41 15 22 - - 1.4
15/04:30pm 7.7 1.1 4.3 79 1.6 W 28 44 15 24 - - 1.4
15/04:13pm 7.9 2.0 5.7 86 1.1 W 26 39 14 21 - - 1.4
15/04:00pm 7.1 1.0 4.8 85 1.1 W 26 44 14 24 - - 1.4
15/03:55pm 7.2 2.0 5.5 89 0.8 W 22 35 12 19 - - 1.4
15/03:30pm 6.8 1.4 6.2 96 0.3 W 24 43 13 23 - - 1.4
15/03:20pm 5.8 -0.7 4.6 92 0.6 W 28 46 15 25 - - 1.4
15/03:09pm 6.6 0.8 4.6 87 0.9 WNW 24 50 13 27 - - 1.2
15/03:00pm 7.8 0.1 3.5 74 2.0 W 33 61 18 33 - - 0.8
15/02:30pm 8.6 2.2 5.0 78 1.7 W 28 48 15 26 - - 0.8
15/02:26pm 7.8 1.2 4.2 78 1.7 W 28 48 15 26 - - 0.8
15/02:00pm 7.8 2.0 6.1 89 0.8 W 26 43 14 23 - - 0.8
15/01:51pm 7.1 0.9 6.0 93 0.5 W 28 43 15 23 - - 0.8
15/01:50pm 7.1 0.9 6.0 93 0.5 W 28 43 15 23 - - 0.8
15/01:30pm 5.3 -1.2 4.7 96 0.3 W 28 46 15 25 - - 0.6
15/01:18pm 5.5 -1.5 4.2 91 0.6 WSW 30 56 16 30 - - 0.6
15/01:16pm 5.8 -0.8 4.1 89 0.8 WSW 28 56 15 30 - - 0.6
15/01:15pm 6.0 -0.6 4.0 87 0.9 WSW 28 56 15 30 - - 0.4
15/01:00pm 8.1 2.7 4.3 77 1.8 W 22 33 12 18 - - 0.0
15/12:30pm 6.5 1.1 4.5 87 0.9 WNW 22 41 12 22 - - 0.0
15/12:16pm 7.0 0.2 2.9 75 1.8 W 28 63 15 34 - - 0.0
15/12:00pm 6.2 0.9 3.2 81 1.3 W 20 48 11 26 - - 0.0
15/11:39am 9.2 2.0 0.4 54 3.8 W 28 52 15 28 - - 0.0
15/11:30am 10.7 5.5 2.5 57 3.8 W 19 35 10 19 - - 0.0
15/11:00am 11.7 6.5 3.7 58 3.8 WNW 20 39 11 21 - - 0.0
15/10:30am 10.4 5.9 4.3 66 2.9 WNW 17 28 9 15 - - 0.0
15/10:00am 8.7 3.4 3.1 68 2.6 WNW 20 37 11 20 - - 0.0
15/09:30am 7.8 2.8 3.5 74 2.0 WNW 19 41 10 22 - - 0.0
15/09:00am 6.2 0.6 3.5 83 1.2 NNW 22 43 12 23 - - 2.0
15/08:42am 4.4 -1.2 3.7 95 0.3 WNW 22 46 12 25 - - 2.0
15/08:30am 4.2 -3.9 3.2 93 0.4 W 35 57 19 31 - - 1.8
15/08:16am 4.6 -3.0 2.9 89 0.7 WSW 32 50 17 27 - - 1.6
15/08:03am 5.5 -2.1 3.0 84 1.1 WSW 32 44 17 24 - - 1.6
15/08:00am 5.7 -1.8 3.2 84 1.1 WSW 32 44 17 24 - - 1.6
15/07:43am 6.1 -1.5 2.9 80 1.4 WSW 32 54 17 29 - - 1.6
15/07:30am 6.2 -0.5 3.7 84 1.1 WSW 28 43 15 23 - - 1.6
15/07:00am 5.9 -0.8 3.9 87 0.9 WSW 28 41 15 22 - - 1.6
15/06:39am 5.7 1.2 4.3 91 0.6 W 17 24 9 13 - - 1.6
15/06:30am 5.7 0.3 4.7 93 0.5 W 22 32 12 17 - - 1.6
15/06:16am 5.7 -0.4 5.0 95 0.3 W 26 37 14 20 - - 1.6
15/06:00am 5.7 0.0 5.0 95 0.3 W 24 30 13 16 - - 1.6
15/05:58am 5.8 0.1 5.1 95 0.3 W 24 30 13 16 - - 1.6
15/05:30am 6.2 1.6 5.8 97 0.2 W 19 28 10 15 - - 1.6
15/05:15am 6.2 1.4 5.8 97 0.2 W 20 28 11 15 - - 1.6
15/05:00am 6.2 2.0 5.6 96 0.3 W 17 22 9 12 - - 1.6
15/04:47am 6.5 3.0 5.6 94 0.4 W 13 19 7 10 - - 1.6
15/04:30am 6.8 4.1 5.7 93 0.5 W 9 13 5 7 - - 1.6
15/04:12am 7.1 4.8 5.7 91 0.7 WNW 7 9 4 5 - - 1.6
15/04:00am 7.0 4.7 5.0 87 0.9 NNW 6 9 3 5 - - 1.6
15/03:30am 7.9 4.3 4.8 81 1.5 W 13 20 7 11 - - 1.6
15/03:00am 9.5 4.4 4.1 69 2.5 W 20 30 11 16 - - 1.6
15/02:30am 11.2 6.5 0.9 49 4.6 W 15 24 8 13 - - 1.6
15/02:00am 11.4 7.1 1.1 49 4.6 WNW 13 20 7 11 - - 1.6
15/01:30am 11.2 6.9 1.2 50 4.5 WNW 13 22 7 12 - - 1.6
15/01:00am 11.3 7.2 2.3 54 4.1 WNW 13 20 7 11 - - 1.6
15/12:30am 11.5 7.5 2.8 55 4.0 WNW 13 26 7 14 - - 1.6
15/12:00am 11.5 7.5 4.9 64 3.2 WNW 15 26 8 14 - - 1.6
 
Date/Time
EDT
Temp
°C
App
Temp
°C
Dew
Point
°C
Rel
Hum
%
Delta-T
°C
Wind Press
QNH
hPa
Press
MSL
hPa
Rain since
9am
mm
Dir  Spd
km/h
Gust
km/h
Spd
kts
Gust
kts
14/11:30pm 11.5 7.4 6.4 71 2.6 W 17 26 9 14 - - 1.6
14/11:00pm 12.2 8.2 6.5 68 2.9 W 17 26 9 14 - - 1.6
14/10:30pm 12.5 8.5 6.8 68 2.9 W 17 26 9 14 - - 1.6
14/10:00pm 12.9 9.0 6.9 67 3.1 W 17 24 9 13 - - 1.6
14/09:30pm 13.6 8.7 6.9 64 3.4 W 22 37 12 20 - - 1.6
14/09:00pm 13.9 10.7 6.7 62 3.7 WNW 13 20 7 11 - - 1.6
14/08:30pm 13.9 11.2 7.2 64 3.5 WNW 11 19 6 10 - - 1.6
14/08:00pm 15.0 11.1 7.3 60 4.0 WNW 17 28 9 15 - - 1.6
14/07:30pm 15.0 12.3 7.5 61 3.9 WNW 11 20 6 11 - - 1.6
14/07:00pm 16.0 13.3 7.2 56 4.6 NNW 11 22 6 12 - - 1.6
14/06:30pm 17.1 14.3 8.5 57 4.7 NW 13 22 7 12 - - 1.6
14/06:00pm 16.5 13.9 9.2 62 4.0 NNW 13 32 7 17 - - 1.6
14/05:30pm 17.0 14.9 9.9 63 3.9 NNW 11 17 6 9 - - 1.6
14/05:00pm 18.4 15.8 11.9 66 3.8 NNW 17 32 9 17 - - 1.6
14/04:30pm 17.3 14.9 10.0 62 4.1 NNW 13 26 7 14 - - 1.6
14/04:00pm 16.9 16.1 14.0 83 1.7 WNW 11 22 6 12 - - 1.6
14/03:30pm 14.9 13.6 12.4 85 1.4 ENE 11 19 6 10 - - 1.4
14/03:09pm 13.8 12.0 12.0 89 1.0 NNE 13 20 7 11 - - 1.4
14/03:00pm 14.2 13.4 13.9 98 0.2 NNE 11 17 6 9 - - 1.4
14/02:55pm 13.8 12.6 12.7 93 0.6 NE 11 17 6 9 - - 1.4
14/02:47pm 13.5 12.0 10.5 82 1.7 NNE 9 19 5 10 - - 1.0
14/02:30pm 14.6 13.4 10.2 75 2.4 NNE 7 13 4 7 - - 0.6
14/02:28pm 14.6 13.4 10.4 76 2.3 NE 7 13 4 7 - - 0.6
14/02:00pm 15.4 12.9 11.0 75 2.5 NNE 15 26 8 14 - - 0.6
14/01:30pm 17.8 15.7 12.3 70 3.2 NNE 15 24 8 13 - - 0.6
14/01:00pm 17.7 15.5 12.2 70 3.2 NE 15 28 8 15 - - 0.6
14/12:30pm 16.5 15.1 12.1 75 2.5 NE 11 19 6 10 - - 0.6
14/12:00pm 15.9 13.5 11.5 75 2.5 NNE 15 35 8 19 - - 0.6
14/11:30am 15.6 13.3 11.6 77 2.3 NNE 15 28 8 15 - - 0.6
14/11:21am 15.1 12.3 11.5 79 2.0 N 17 33 9 18 - - 0.6
14/11:04am 13.9 12.4 11.9 88 1.1 NNW 11 22 6 12 - - 0.6
14/11:01am 14.9 13.3 12.9 88 1.2 NNW 13 22 7 12 - - 0.6
14/11:00am 15.2 13.9 13.7 91 0.9 NNW 13 22 7 12 - - 0.6
14/10:57am 15.0 13.1 13.0 88 1.2 N 15 28 8 15 - - 0.6
14/10:30am 12.5 10.9 11.4 93 0.6 WNW 11 22 6 12 - - 0.6
14/10:26am 13.6 12.4 12.7 94 0.5 NW 11 22 6 12 - - 0.6
14/10:07am 14.1 12.9 13.9 99 0.1 NE 13 22 7 12 - - 0.6
14/10:00am 13.2 11.7 13.0 99 0.1 NNE 13 22 7 12 - - 0.6
14/09:48am 12.3 10.8 11.8 97 0.3 NNE 11 17 6 9 - - 0.4
14/09:40am 12.7 10.7 11.6 93 0.6 NE 13 22 7 12 - - 0.0
14/09:37am 12.9 10.6 11.6 92 0.7 NE 15 22 8 12 - - 0.0
14/09:30am 13.4 11.8 11.6 89 1.0 NE 11 20 6 11 - - 0.0
14/09:00am 12.8 12.3 12.8 100 0.0 NE 7 13 4 7 - - 4.6
14/08:30am 11.5 10.2 11.3 99 0.1 NNE 9 19 5 10 - - 4.6
14/08:18am 11.2 9.8 11.0 99 0.1 NNE 9 19 5 10 - - 4.6
14/08:00am 10.8 9.3 10.6 99 0.1 N 9 15 5 8 - - 4.6
14/07:30am 10.1 8.4 10.0 99 0.1 NE 9 13 5 7 - - 4.6
14/07:00am 9.9 8.2 9.8 99 0.1 NE 9 15 5 8 - - 4.6
14/06:30am 9.8 8.4 9.7 99 0.1 NNE 7 15 4 8 - - 4.6
14/06:00am 9.5 7.7 9.4 99 0.1 NE 9 15 5 8 - - 4.6
14/05:30am 9.5 8.1 9.4 99 0.1 ENE 7 13 4 7 - - 4.6
14/05:00am 9.4 7.9 9.3 99 0.1 ENE 7 13 4 7 - - 4.6
14/04:30am 9.3 7.4 9.2 99 0.1 NE 9 17 5 9 - - 4.6
14/04:00am 9.3 7.8 9.2 99 0.1 NE 7 11 4 6 - - 4.4
14/03:30am 9.4 7.9 9.3 99 0.1 ENE 7 15 4 8 - - 4.4
14/03:00am 9.4 7.6 9.3 99 0.1 ENE 9 15 5 8 - - 4.4
14/02:30am 9.3 7.1 9.2 99 0.1 ENE 11 19 6 10 - - 4.4
14/02:00am 9.4 7.6 9.3 99 0.1 ENE 9 15 5 8 - - 4.4
14/01:30am 9.5 7.3 9.4 99 0.1 ENE 11 17 6 9 - - 4.4
14/01:00am 9.6 7.4 9.5 99 0.1 ENE 11 19 6 10 - - 4.4
14/12:30am 9.6 7.4 9.5 99 0.1 ENE 11 19 6 10 - - 4.4
14/12:00am 9.7 7.9 9.6 99 0.1 ENE 9 19 5 10 - - 4.4
 
Date/Time
EDT
Temp
°C
App
Temp
°C
Dew
Point
°C
Rel
Hum
%
Delta-T
°C
Wind Press
QNH
hPa
Press
MSL
hPa
Rain since
9am
mm
Dir  Spd
km/h
Gust
km/h
Spd
kts
Gust
kts
13/11:30pm 9.8 7.7 9.7 99 0.1 ENE 11 17 6 9 - - 4.4
13/11:00pm 9.9 7.4 9.8 99 0.1 ENE 13 28 7 15 - - 4.4
13/10:30pm 10.0 7.6 9.9 99 0.1 ENE 13 24 7 13 - - 4.2
13/10:00pm 10.1 7.3 10.0 99 0.1 ENE 15 26 8 14 - - 4.2
13/09:30pm 10.2 7.8 10.1 99 0.1 ENE 13 28 7 15 - - 3.8
13/09:00pm 10.3 8.3 10.1 99 0.1 ENE 11 17 6 9 - - 3.6
13/08:30pm 10.3 8.3 10.1 99 0.1 ENE 11 20 6 11 - - 3.2
13/08:00pm 10.3 7.9 10.1 99 0.1 ENE 13 20 7 11 - - 3.2
13/07:30pm 10.3 8.3 10.1 99 0.1 ENE 11 22 6 12 - - 2.8
13/07:00pm 10.5 8.5 10.3 99 0.1 ENE 11 19 6 10 - - 2.8
13/06:30pm 10.6 8.7 10.4 99 0.1 ENE 11 20 6 11 - - 2.8
13/06:00pm 10.9 8.3 10.7 99 0.1 ENE 15 26 8 14 - - 2.6
13/05:30pm 11.0 9.2 10.8 99 0.1 ENE 11 20 6 11 - - 2.6
13/05:00pm 11.2 9.4 11.0 99 0.1 ENE 11 22 6 12 - - 2.6
13/04:30pm 11.1 9.3 10.9 99 0.1 ENE 11 22 6 12 - - 2.4
13/04:00pm 11.0 9.2 10.8 99 0.1 ENE 11 22 6 12 - - 2.4
13/03:30pm 11.6 10.0 11.4 99 0.1 ENE 11 26 6 14 - - 2.4
13/03:06pm 11.4 9.7 11.2 99 0.1 ENE 11 22 6 12 - - 2.4
13/03:00pm 11.2 9.1 11.0 99 0.1 ENE 13 22 7 12 - - 2.4
13/02:59pm 11.2 9.1 11.0 99 0.1 ENE 13 22 7 12 - - 2.4
13/02:30pm 11.4 10.1 11.2 99 0.1 ENE 9 17 5 9 - - 2.4
13/02:00pm 11.8 11.0 11.6 99 0.1 ENE 7 17 4 9 - - 2.4
13/01:30pm 11.4 10.1 11.2 99 0.1 ENE 9 22 5 12 - - 2.0
13/01:00pm 10.7 9.2 10.5 99 0.1 ENE 9 19 5 10 - - 2.0
13/12:30pm 10.6 9.1 10.4 99 0.1 ENE 9 19 5 10 - - 1.8
13/12:00pm 10.2 8.6 10.1 99 0.1 ENE 9 17 5 9 - - 1.6
13/11:30am 10.0 8.3 10.0 100 0.0 ENE 9 19 5 10 - - 1.6
13/11:00am 9.6 8.2 9.6 100 0.0 E 7 17 4 9 - - 1.4
13/10:30am 9.4 7.2 9.4 100 0.0 ENE 11 19 6 10 - - 1.0
13/10:00am 8.5 6.8 8.5 100 0.0 E 7 13 4 7 - - 0.8
13/09:30am 7.6 5.3 7.5 99 0.0 ENE 9 22 5 12 - - 0.4
13/09:00am 7.7 5.1 7.6 99 0.1 E 11 24 6 13 - - 14.4
13/08:30am 7.2 4.8 7.1 99 0.0 ENE 9 17 5 9 - - 14.0

Latest Capital City Observations: Canberra | Sydney | Melbourne | Brisbane | Adelaide | Perth | Hobart | Darwin

Other formats

Comma delimited format used in spreadsheet applications
http://www.bom.gov.au/fwo/IDN60901/IDN60901.94743.axf

JavaScript Object Notation format (JSON) in row-major order
http://www.bom.gov.au/fwo/IDN60901/IDN60901.94743.json

Data quality

Most of these data are generated automatically and are frequently updated. Quality checks on data are not normally performed. It is possible for incorrect values to appear. Refer to information at About Latest Weather Observations and please check the disclaimer before using these data.